Terminal Aerodrome Forecast
Issued by NWS New Orleans/Baton Rouge, LA

Home | Current Version | Previous Version | Text Only | Print | Product List | Glossary On
Versions: 1 2 3 4 5 6 7 8 9 10 11 12
000
FTUS44 KLIX 300539
TAFNEW
TAF
KNEW 300539Z 3006/3106 24005KT P6SM SKC
     FM301200 25006KT P6SM SCT250 PROB30 3017/3021 3SM TSRA BKN035CB
     FM302100 13008KT P6SM VCTS SCT040CB SCT200=

USA.gov is the U.S. government's official web portal to all federal, state and local government web resources and services.